createdAt,value
2022-11-27T00:02:02.679Z,90.46
2022-11-27T00:04:26.443Z,90.22
2022-11-27T00:06:49.974Z,90.20
2022-11-27T00:09:17.141Z,90.20
2022-11-27T00:11:40.783Z,91.70
2022-11-27T00:14:05.880Z,91.53
2022-11-27T00:16:30.557Z,91.51
2022-11-27T00:18:54.174Z,90.96
2022-11-27T00:21:24.084Z,90.53
2022-11-27T00:23:47.719Z,91.04
2022-11-27T00:26:11.559Z,91.26
2022-11-27T00:28:36.117Z,90.74
2022-11-27T00:31:02.273Z,91.41
2022-11-27T00:33:25.908Z,91.87
2022-11-27T00:35:49.453Z,91.02
2022-11-27T00:38:13.106Z,92.15
2022-11-27T00:40:36.754Z,93.05
2022-11-27T00:43:01.464Z,92.70
2022-11-27T00:45:25.183Z,93.80
2022-11-27T00:47:50.243Z,93.08
2022-11-27T00:50:13.926Z,92.13
2022-11-27T00:52:37.515Z,93.12
2022-11-27T00:55:01.024Z,92.14
2022-11-27T00:57:25.092Z,92.14
2022-11-27T00:59:48.629Z,92.16
2022-11-27T01:02:12.434Z,92.92
2022-11-27T01:04:37.661Z,94.44
2022-11-27T01:07:01.404Z,94.52
2022-11-27T01:09:24.907Z,94.85
2022-11-27T01:11:48.460Z,94.67
2022-11-27T01:14:16.012Z,94.49
2022-11-27T01:16:42.939Z,95.05
2022-11-27T01:19:06.982Z,94.03
2022-11-27T01:21:35.275Z,92.96
2022-11-27T01:23:58.874Z,92.61
2022-11-27T01:26:23.011Z,92.13
2022-11-27T01:28:47.744Z,92.00
2022-11-27T01:31:16.673Z,92.59
2022-11-27T01:33:40.890Z,92.11
2022-11-27T01:36:07.596Z,91.70
2022-11-27T01:38:33.375Z,92.20
2022-11-27T01:41:01.111Z,91.56
2022-11-27T01:43:40.364Z,91.86
2022-11-27T01:46:04.093Z,92.13
2022-11-27T01:48:27.634Z,91.65
2022-11-27T01:50:51.241Z,91.32
2022-11-27T01:53:19.008Z,90.75
2022-11-27T01:55:47.276Z,91.73
2022-11-27T01:58:14.520Z,91.72
2022-11-27T02:00:39.243Z,91.18
2022-11-27T02:03:02.810Z,91.75
2022-11-27T02:05:31.153Z,91.12
2022-11-27T02:07:55.497Z,91.55
2022-11-27T02:10:20.053Z,90.72
2022-11-27T02:12:54.567Z,90.84
2022-11-27T02:15:26.631Z,90.03
2022-11-27T02:17:58.591Z,89.96
2022-11-27T02:20:38.687Z,89.78
2022-11-27T02:23:41.529Z,89.17
2022-11-27T02:26:31.508Z,90.43
2022-11-27T02:29:02.870Z,90.31
2022-11-27T02:31:36.543Z,90.07
2022-11-27T02:34:12.923Z,90.18
2022-11-27T02:36:39.560Z,90.55
2022-11-27T02:39:08.766Z,90.53
2022-11-27T02:41:39.708Z,90.19
2022-11-27T02:44:07.855Z,90.51
2022-11-27T02:46:32.192Z,89.93
2022-11-27T02:49:07.899Z,90.09
2022-11-27T02:51:39.083Z,89.93
2022-11-27T02:54:06.588Z,89.98
2022-11-27T02:56:32.629Z,90.55
2022-11-27T02:59:00.560Z,90.16
2022-11-27T03:01:29.123Z,90.72
2022-11-27T03:03:56.685Z,90.70
2022-11-27T03:06:26.849Z,91.01
2022-11-27T03:08:57.759Z,91.12
2022-11-27T03:11:21.410Z,91.28
2022-11-27T03:13:48.663Z,92.34
2022-11-27T03:16:18.010Z,91.88
2022-11-27T03:18:50.353Z,91.29
2022-11-27T03:21:27.473Z,91.99
2022-11-27T03:23:51.129Z,92.38
2022-11-27T03:26:14.684Z,92.62
2022-11-27T03:28:38.533Z,95.24
2022-11-27T03:31:02.219Z,94.45
2022-11-27T03:33:26.156Z,92.89
2022-11-27T03:35:51.040Z,93.26
2022-11-27T03:38:14.616Z,92.65
2022-11-27T03:40:51.509Z,93.18
2022-11-27T03:43:20.278Z,92.48
2022-11-27T03:45:53.875Z,91.85
2022-11-27T03:48:28.012Z,92.93
2022-11-27T03:51:09.511Z,92.10
2022-11-27T03:53:45.645Z,93.01
2022-11-27T03:56:15.538Z,92.89
2022-11-27T03:58:44.099Z,92.57
2022-11-27T04:01:12.605Z,91.86
2022-11-27T04:03:36.917Z,91.65
2022-11-27T04:06:01.943Z,91.75
2022-11-27T04:08:26.542Z,91.81
2022-11-27T04:10:50.697Z,92.95
2022-11-27T04:13:14.549Z,91.75
2022-11-27T04:15:38.307Z,91.67
2022-11-27T04:18:01.848Z,92.13
2022-11-27T04:20:25.433Z,91.39
2022-11-27T04:22:50.359Z,90.56
2022-11-27T04:25:13.927Z,90.30
2022-11-27T04:27:37.469Z,90.71
2022-11-27T04:30:01.029Z,90.48
2022-11-27T04:32:24.656Z,91.16
2022-11-27T04:34:48.183Z,91.35
2022-11-27T04:37:11.730Z,90.63
2022-11-27T04:39:36.714Z,90.48
2022-11-27T04:42:00.241Z,90.51
2022-11-27T04:44:23.817Z,90.54
2022-11-27T04:46:47.409Z,90.96
2022-11-27T04:49:11.289Z,91.44
2022-11-27T04:51:34.961Z,91.25
2022-11-27T04:53:58.538Z,90.23
2022-11-27T04:56:23.716Z,89.44
2022-11-27T04:58:47.237Z,88.88
2022-11-27T05:01:11.280Z,88.55
2022-11-27T05:03:34.854Z,89.51
2022-11-27T05:05:59.280Z,88.94
2022-11-27T05:08:22.825Z,88.44
2022-11-27T05:10:46.937Z,88.52
2022-11-27T05:13:11.845Z,88.69
2022-11-27T05:15:35.367Z,88.20
2022-11-27T05:17:58.882Z,88.88
2022-11-27T05:20:22.457Z,89.18
2022-11-27T05:22:46.173Z,89.07
2022-11-27T05:25:10.802Z,89.65
2022-11-27T05:27:34.348Z,88.96
2022-11-27T05:29:59.270Z,89.84
2022-11-27T05:32:22.827Z,88.77
2022-11-27T05:34:46.338Z,89.06
2022-11-27T05:37:11.271Z,88.81
2022-11-27T05:39:37.447Z,89.32
2022-11-27T05:42:01.022Z,89.21
2022-11-27T05:44:24.605Z,89.86
2022-11-27T05:46:49.611Z,89.51
2022-11-27T05:49:15.247Z,90.15
2022-11-27T05:51:38.797Z,89.79
2022-11-27T05:54:02.350Z,90.46
2022-11-27T05:56:25.944Z,90.33
2022-11-27T05:58:51.631Z,90.09
2022-11-27T06:01:18.133Z,89.85
2022-11-27T06:03:43.182Z,89.69
2022-11-27T06:06:12.387Z,89.11
2022-11-27T06:08:37.516Z,89.53
2022-11-27T06:11:01.076Z,88.62
2022-11-27T06:13:24.628Z,89.22
2022-11-27T06:15:48.210Z,89.58
2022-11-27T06:18:13.265Z,89.99
2022-11-27T06:20:43.750Z,89.74
2022-11-27T06:23:08.335Z,89.46
2022-11-27T06:25:31.853Z,91.26
2022-11-27T06:27:55.496Z,91.13
2022-11-27T06:30:19.737Z,90.87
2022-11-27T06:32:43.373Z,90.67
2022-11-27T06:35:08.299Z,90.46
2022-11-27T06:37:34.495Z,90.45
2022-11-27T06:39:58.064Z,89.92
2022-11-27T06:42:21.637Z,89.33
2022-11-27T06:44:45.164Z,89.44
2022-11-27T06:47:08.785Z,89.22
2022-11-27T06:49:32.314Z,89.65
2022-11-27T06:51:55.908Z,90.06
2022-11-27T06:54:20.802Z,90.54
2022-11-27T06:56:44.478Z,90.95
2022-11-27T06:59:07.980Z,89.98
2022-11-27T07:01:32.858Z,89.70
2022-11-27T07:03:57.478Z,89.94
2022-11-27T07:06:24.110Z,89.40
2022-11-27T07:08:48.286Z,90.16
2022-11-27T07:11:18.216Z,90.49
2022-11-27T07:13:42.299Z,90.27
2022-11-27T07:16:09.484Z,90.02
2022-11-27T07:18:37.011Z,90.35
2022-11-27T07:21:00.548Z,90.27
2022-11-27T07:23:24.414Z,90.52
2022-11-27T07:25:48.021Z,90.43
2022-11-27T07:28:18.534Z,90.25
2022-11-27T07:30:42.544Z,91.84
2022-11-27T07:33:06.286Z,91.35
2022-11-27T07:35:29.959Z,91.65
2022-11-27T07:37:53.537Z,91.70
2022-11-27T07:40:18.338Z,91.28
2022-11-27T07:42:41.860Z,91.00
2022-11-27T07:45:09.672Z,91.77
2022-11-27T07:47:33.328Z,91.93
2022-11-27T07:49:58.535Z,92.03
2022-11-27T07:52:22.511Z,91.64
2022-11-27T07:54:46.098Z,91.70
2022-11-27T07:57:09.687Z,92.33
2022-11-27T07:59:33.334Z,91.65
2022-11-27T08:01:58.318Z,92.12
2022-11-27T08:04:22.110Z,91.81
2022-11-27T08:06:45.680Z,91.42
2022-11-27T08:09:09.188Z,92.58
2022-11-27T08:11:35.293Z,94.05
2022-11-27T08:14:02.085Z,92.87
2022-11-27T08:16:25.932Z,92.01
2022-11-27T08:18:50.936Z,93.30
2022-11-27T08:21:14.524Z,93.00
2022-11-27T08:23:38.118Z,93.21
2022-11-27T08:26:01.639Z,93.62
2022-11-27T08:28:25.229Z,93.90
2022-11-27T08:30:57.144Z,95.90
2022-11-27T08:33:20.679Z,96.34
2022-11-27T08:35:50.055Z,97.67
2022-11-27T08:38:13.827Z,98.23
2022-11-27T08:40:37.325Z,97.89
2022-11-27T08:43:00.919Z,97.36
2022-11-27T08:45:24.462Z,97.45
2022-11-27T08:47:48.168Z,95.71
2022-11-27T08:50:12.180Z,95.43
2022-11-27T08:52:37.178Z,96.30
2022-11-27T08:55:00.709Z,95.75
2022-11-27T08:57:24.326Z,95.21
2022-11-27T08:59:47.843Z,95.18
2022-11-27T09:02:14.124Z,94.39
2022-11-27T09:04:37.708Z,94.57
2022-11-27T09:07:01.299Z,93.97
2022-11-27T09:09:26.177Z,94.46
2022-11-27T09:11:49.762Z,94.09
2022-11-27T09:14:13.526Z,93.65
2022-11-27T09:16:37.542Z,93.05
2022-11-27T09:19:01.179Z,92.52
2022-11-27T09:21:27.876Z,92.20
2022-11-27T09:23:55.059Z,91.98
2022-11-27T09:26:20.028Z,90.42
2022-11-27T09:28:45.166Z,88.94
2022-11-27T09:31:11.292Z,87.82
2022-11-27T09:33:36.976Z,86.04
2022-11-27T09:36:05.429Z,84.41
2022-11-27T09:38:28.982Z,83.90
2022-11-27T09:40:58.040Z,84.62
2022-11-27T09:43:31.949Z,83.08
2022-11-27T09:46:04.018Z,83.72
2022-11-27T09:48:35.948Z,83.94
2022-11-27T09:51:02.006Z,83.59
2022-11-27T09:53:32.467Z,82.71
2022-11-27T09:55:59.085Z,83.66
2022-11-27T09:58:32.318Z,82.53
2022-11-27T10:00:55.922Z,81.88
2022-11-27T10:03:26.015Z,84.01
2022-11-27T10:06:02.394Z,82.42
2022-11-27T10:08:34.082Z,82.76
2022-11-27T10:11:14.914Z,82.81
2022-11-27T10:13:58.336Z,83.10
2022-11-27T10:16:29.188Z,83.34
2022-11-27T10:18:56.730Z,83.58
2022-11-27T10:21:30.821Z,82.85
2022-11-27T10:24:03.471Z,82.60
2022-11-27T10:26:33.324Z,82.49
2022-11-27T10:29:04.759Z,83.55
2022-11-27T10:31:38.703Z,82.98
2022-11-27T10:34:04.623Z,81.04
2022-11-27T10:36:32.504Z,82.84
2022-11-27T10:38:58.321Z,81.63
2022-11-27T10:44:29.443Z,81.71
2022-11-27T10:46:58.221Z,81.90
2022-11-27T10:49:21.753Z,82.04
2022-11-27T10:51:45.482Z,81.21
2022-11-27T10:54:18.212Z,80.25
2022-11-27T10:57:03.601Z,80.27
2022-11-27T10:59:34.876Z,82.23
2022-11-27T11:02:00.022Z,81.21
2022-11-27T11:04:43.778Z,79.49
2022-11-27T11:07:25.993Z,81.04
2022-11-27T11:09:49.725Z,80.99
2022-11-27T11:12:21.245Z,80.66
2022-11-27T11:14:53.998Z,80.85
2022-11-27T11:17:19.097Z,79.46
2022-11-27T11:19:43.913Z,80.96
2022-11-27T11:22:16.137Z,80.05
2022-11-27T11:24:42.538Z,79.52
2022-11-27T11:27:13.698Z,79.42
2022-11-27T11:29:42.051Z,79.16
2022-11-27T11:32:13.133Z,79.20
2022-11-27T11:34:37.653Z,79.65
2022-11-27T11:37:03.853Z,79.41
2022-11-27T11:39:30.575Z,79.52
2022-11-27T11:41:54.108Z,78.32
2022-11-27T11:44:26.003Z,78.92
2022-11-27T11:46:54.608Z,77.71
2022-11-27T11:49:25.098Z,77.12
2022-11-27T11:52:08.595Z,77.31
2022-11-27T11:54:49.586Z,77.34
2022-11-27T11:57:34.763Z,77.05
2022-11-27T12:00:07.289Z,76.49
2022-11-27T12:02:56.334Z,75.97
2022-11-27T12:05:35.968Z,76.13
2022-11-27T12:08:17.341Z,76.09
2022-11-27T12:10:55.808Z,76.32
2022-11-27T12:13:36.490Z,76.30
2022-11-27T12:16:07.634Z,77.10
2022-11-27T12:18:48.038Z,76.78
2022-11-27T12:21:17.695Z,76.49
2022-11-27T12:24:02.178Z,76.37
2022-11-27T12:26:39.428Z,76.14
2022-11-27T12:29:38.849Z,76.10
2022-11-27T12:32:33.584Z,76.56
2022-11-27T12:35:24.973Z,77.29
2022-11-27T12:38:01.711Z,77.25
2022-11-27T12:40:45.567Z,76.47
2022-11-27T12:43:22.094Z,76.30
2022-11-27T12:45:50.988Z,77.91
2022-11-27T12:48:20.631Z,77.87
2022-11-27T12:50:50.336Z,77.79
2022-11-27T12:53:25.020Z,78.04
2022-11-27T12:56:00.387Z,77.93
2022-11-27T12:58:29.986Z,77.44
2022-11-27T13:01:07.870Z,78.33
2022-11-27T13:03:39.155Z,78.07
2022-11-27T13:06:10.158Z,77.57
2022-11-27T13:08:52.138Z,77.30
2022-11-27T13:11:18.833Z,77.36
2022-11-27T13:13:48.411Z,77.30
2022-11-27T13:16:19.764Z,77.68
2022-11-27T13:18:49.895Z,77.43
2022-11-27T13:21:17.337Z,77.20
2022-11-27T13:23:42.453Z,76.87
2022-11-27T13:26:25.979Z,76.53
2022-11-27T13:28:54.511Z,77.15
2022-11-27T13:31:23.578Z,75.84
2022-11-27T13:33:48.951Z,76.65
2022-11-27T13:36:21.979Z,77.45
2022-11-27T13:38:47.705Z,77.16
2022-11-27T13:41:22.722Z,77.13
2022-11-27T13:43:48.450Z,77.93
2022-11-27T13:46:21.572Z,78.08
2022-11-27T13:48:51.748Z,77.06
2022-11-27T13:51:28.238Z,76.83
2022-11-27T13:53:53.195Z,77.10
2022-11-27T13:56:16.684Z,77.47
2022-11-27T13:58:43.031Z,79.18
2022-11-27T14:01:19.845Z,77.24
2022-11-27T14:03:43.633Z,79.79
2022-11-27T14:06:19.546Z,78.03
2022-11-27T14:09:03.621Z,78.38
2022-11-27T14:11:40.181Z,78.63
2022-11-27T14:14:18.088Z,79.63
2022-11-27T14:16:42.571Z,79.55
2022-11-27T14:19:30.655Z,79.67
2022-11-27T14:21:57.358Z,79.51
2022-11-27T14:24:41.181Z,80.02
2022-11-27T14:27:17.811Z,79.62
2022-11-27T14:29:41.466Z,80.33
2022-11-27T14:32:09.856Z,79.94
2022-11-27T14:34:35.260Z,79.72
2022-11-27T14:36:59.760Z,79.50
2022-11-27T14:39:25.627Z,81.10
2022-11-27T14:42:00.364Z,80.00
2022-11-27T14:44:23.927Z,80.56
2022-11-27T14:46:47.584Z,81.08
2022-11-27T14:49:20.640Z,82.01
2022-11-27T14:51:44.511Z,81.92
2022-11-27T14:54:13.919Z,81.59
2022-11-27T14:56:42.137Z,82.42
2022-11-27T14:59:07.816Z,82.95
2022-11-27T15:01:34.193Z,82.76
2022-11-27T15:03:59.615Z,84.40
2022-11-27T15:06:23.269Z,83.09
2022-11-27T15:09:09.071Z,83.58
2022-11-27T15:11:54.415Z,84.58
2022-11-27T15:14:19.608Z,83.84
2022-11-27T15:16:48.751Z,84.44
2022-11-27T15:19:28.351Z,83.52
2022-11-27T15:21:52.408Z,84.58
2022-11-27T15:24:34.203Z,84.03
2022-11-27T15:27:08.625Z,83.84
2022-11-27T15:29:37.731Z,83.49
2022-11-27T15:32:01.359Z,83.60
2022-11-27T15:34:25.981Z,85.26
2022-11-27T15:36:51.575Z,83.91
2022-11-27T15:39:22.346Z,84.91
2022-11-27T15:41:54.800Z,84.15
2022-11-27T15:44:18.402Z,84.46
2022-11-27T15:46:43.852Z,84.71
2022-11-27T15:49:14.084Z,84.46
2022-11-27T15:51:37.716Z,85.58
2022-11-27T15:54:01.235Z,85.01
2022-11-27T15:56:24.859Z,84.67
2022-11-27T15:58:48.374Z,85.01
2022-11-27T16:01:12.830Z,85.28
2022-11-27T16:03:39.871Z,85.88
2022-11-27T16:06:05.549Z,84.93
2022-11-27T16:08:29.071Z,84.71
2022-11-27T16:10:52.655Z,85.40
2022-11-27T16:13:16.173Z,85.94
2022-11-27T16:15:39.819Z,84.91
2022-11-27T16:18:03.399Z,85.13
2022-11-27T16:20:29.077Z,87.06
2022-11-27T16:22:53.012Z,87.23
2022-11-27T16:25:16.780Z,87.07
2022-11-27T16:27:40.334Z,86.77
2022-11-27T16:30:04.153Z,85.89
2022-11-27T16:32:27.977Z,85.87
2022-11-27T16:34:51.907Z,86.40
2022-11-27T16:37:18.597Z,86.66
2022-11-27T16:39:42.730Z,87.22
2022-11-27T16:42:06.544Z,87.45
2022-11-27T16:44:31.971Z,86.34
2022-11-27T16:46:56.491Z,86.80
2022-11-27T16:49:21.321Z,88.92
2022-11-27T16:51:46.616Z,88.47
2022-11-27T16:54:14.167Z,89.44
2022-11-27T16:56:39.728Z,88.66
2022-11-27T16:59:04.175Z,89.40
2022-11-27T17:01:31.835Z,89.80
2022-11-27T17:03:56.556Z,90.07
2022-11-27T17:06:23.276Z,91.67
2022-11-27T17:08:47.215Z,91.08
2022-11-27T17:11:15.110Z,91.45
2022-11-27T17:13:38.865Z,91.34
2022-11-27T17:16:02.571Z,91.80
2022-11-27T17:18:26.632Z,91.61
2022-11-27T17:20:50.222Z,91.98
2022-11-27T17:23:14.775Z,91.65
2022-11-27T17:25:38.447Z,92.27
2022-11-27T17:28:03.456Z,91.86
2022-11-27T17:30:27.340Z,92.19
2022-11-27T17:32:51.373Z,91.51
2022-11-27T17:35:15.562Z,91.34
2022-11-27T17:37:39.288Z,90.96
2022-11-27T17:40:03.100Z,90.30
2022-11-27T17:42:26.676Z,89.82
2022-11-27T17:44:51.824Z,90.30
2022-11-27T17:47:15.427Z,91.03
2022-11-27T17:49:39.899Z,90.54
2022-11-27T17:52:06.506Z,90.32
2022-11-27T17:54:30.305Z,89.18
2022-11-27T17:56:54.699Z,89.55
2022-11-27T17:59:18.525Z,88.84
2022-11-27T18:01:43.665Z,88.98
2022-11-27T18:04:10.294Z,89.04
2022-11-27T18:06:36.092Z,89.61
2022-11-27T18:08:59.820Z,89.22
2022-11-27T18:11:26.397Z,88.13
2022-11-27T18:13:50.557Z,88.69
2022-11-27T18:16:16.475Z,88.95
2022-11-27T18:18:41.720Z,89.46
2022-11-27T18:21:14.005Z,89.26
2022-11-27T18:24:14.493Z,88.21
2022-11-27T18:26:45.549Z,88.08
2022-11-27T18:29:11.870Z,88.65
2022-11-27T18:31:39.931Z,89.15
2022-11-27T18:34:06.646Z,88.87
2022-11-27T18:36:31.099Z,88.99
2022-11-27T18:38:54.673Z,90.12
2022-11-27T18:41:21.510Z,88.94
2022-11-27T18:43:45.937Z,89.24
2022-11-27T18:46:10.944Z,88.59
2022-11-27T18:48:35.264Z,89.19
2022-11-27T18:51:06.570Z,89.40
2022-11-27T18:53:30.203Z,88.34
2022-11-27T18:55:53.739Z,88.09
2022-11-27T18:58:17.285Z,89.39
2022-11-27T19:00:41.285Z,88.30
2022-11-27T19:03:05.817Z,88.60
2022-11-27T19:05:29.307Z,87.42
2022-11-27T19:07:54.363Z,86.26
2022-11-27T19:10:18.584Z,86.76
2022-11-27T19:12:42.278Z,86.30
2022-11-27T19:15:06.884Z,86.03
2022-11-27T19:17:32.447Z,86.59
2022-11-27T19:19:56.743Z,87.42
2022-11-27T19:22:21.559Z,87.25
2022-11-27T19:24:46.632Z,87.19
2022-11-27T19:27:10.207Z,88.51
2022-11-27T19:29:34.153Z,88.26
2022-11-27T19:31:58.895Z,89.16
2022-11-27T19:34:22.885Z,88.53
2022-11-27T19:36:46.636Z,88.16
2022-11-27T19:39:14.217Z,88.04
2022-11-27T19:41:39.456Z,87.49
2022-11-27T19:44:04.697Z,86.39
2022-11-27T19:46:31.047Z,87.00
2022-11-27T19:48:57.376Z,87.15
2022-11-27T19:51:20.938Z,87.38
2022-11-27T19:53:45.214Z,87.38
2022-11-27T19:56:10.439Z,88.76
2022-11-27T19:58:35.592Z,86.90
2022-11-27T20:01:07.309Z,88.22
2022-11-27T20:03:30.967Z,88.42
2022-11-27T20:06:04.532Z,88.82
2022-11-27T20:08:28.137Z,88.32
2022-11-27T20:10:51.885Z,88.24
2022-11-27T20:13:15.448Z,87.93
2022-11-27T20:15:40.782Z,87.04
2022-11-27T20:18:04.461Z,87.88
2022-11-27T20:20:32.794Z,87.49
2022-11-27T20:22:58.417Z,87.51
2022-11-27T20:25:22.141Z,87.24
2022-11-27T20:27:45.729Z,86.06
2022-11-27T20:30:10.739Z,86.26
2022-11-27T20:32:35.847Z,86.61
2022-11-27T20:34:59.911Z,86.61
2022-11-27T20:37:23.635Z,86.11
2022-11-27T20:39:47.176Z,87.06
2022-11-27T20:42:10.791Z,86.49
2022-11-27T20:44:34.345Z,86.81
2022-11-27T20:46:58.864Z,86.22
2022-11-27T20:49:24.353Z,86.84
2022-11-27T20:51:49.095Z,86.42
2022-11-27T20:54:15.574Z,86.71
2022-11-27T20:56:40.871Z,86.11
2022-11-27T20:59:07.938Z,86.36
2022-11-27T21:01:33.733Z,86.68
2022-11-27T21:03:59.306Z,85.79
2022-11-27T21:06:26.829Z,86.28
2022-11-27T21:08:51.467Z,85.68
2022-11-27T21:11:18.555Z,87.39
2022-11-27T21:13:42.315Z,86.43
2022-11-27T21:16:09.782Z,86.55
2022-11-27T21:18:33.374Z,86.80
2022-11-27T21:20:57.031Z,85.84
2022-11-27T21:23:21.977Z,86.42
2022-11-27T21:25:45.566Z,86.83
2022-11-27T21:28:09.347Z,86.21
2022-11-27T21:30:34.702Z,86.46
2022-11-27T21:32:58.377Z,86.83
2022-11-27T21:35:21.984Z,86.68
2022-11-27T21:37:45.521Z,85.26
2022-11-27T21:40:12.678Z,85.61
2022-11-27T21:42:39.260Z,85.21
2022-11-27T21:45:07.826Z,86.57
2022-11-27T21:47:31.419Z,85.87
2022-11-27T21:49:55.515Z,84.79
2022-11-27T21:52:19.435Z,86.05
2022-11-27T21:54:43.245Z,85.75
2022-11-27T21:57:08.403Z,86.02
2022-11-27T21:59:32.100Z,85.71
2022-11-27T22:01:57.273Z,85.41
2022-11-27T22:04:21.359Z,85.01
2022-11-27T22:06:45.764Z,85.02
2022-11-27T22:09:14.965Z,84.36
2022-11-27T22:11:39.112Z,84.63
2022-11-27T22:14:06.898Z,85.56
2022-11-27T22:16:33.383Z,84.54
2022-11-27T22:18:58.785Z,85.01
2022-11-27T22:21:22.980Z,85.40
2022-11-27T22:23:47.057Z,85.05
2022-11-27T22:26:14.410Z,86.06
2022-11-27T22:28:38.852Z,84.87
2022-11-27T22:31:10.287Z,85.34
2022-11-27T22:33:37.004Z,85.24
2022-11-27T22:36:00.507Z,86.26
2022-11-27T22:38:24.419Z,85.75
2022-11-27T22:40:47.984Z,85.54
2022-11-27T22:43:11.757Z,84.37
2022-11-27T22:45:39.400Z,86.09
2022-11-27T22:48:04.452Z,84.54
2022-11-27T22:50:27.990Z,85.73
2022-11-27T22:52:55.704Z,84.74
2022-11-27T22:55:21.663Z,85.39
2022-11-27T22:57:45.212Z,85.73
2022-11-27T23:00:10.804Z,86.16
2022-11-27T23:02:34.407Z,86.06
2022-11-27T23:04:59.621Z,85.74
2022-11-27T23:07:25.316Z,85.73
2022-11-27T23:09:49.281Z,86.26
2022-11-27T23:12:12.877Z,85.13
2022-11-27T23:14:36.862Z,84.68
2022-11-27T23:17:00.723Z,85.79
2022-11-27T23:19:24.384Z,85.73
2022-11-27T23:21:49.303Z,85.02
2022-11-27T23:24:15.990Z,85.50
2022-11-27T23:26:39.555Z,84.97
2022-11-27T23:29:03.465Z,84.57
2022-11-27T23:31:31.215Z,84.62
2022-11-27T23:33:56.990Z,84.79
2022-11-27T23:36:20.708Z,85.40
2022-11-27T23:38:45.653Z,85.96
2022-11-27T23:41:10.827Z,84.90
2022-11-27T23:43:34.417Z,85.09
2022-11-27T23:45:57.928Z,84.71
2022-11-27T23:48:21.454Z,86.23
2022-11-27T23:50:45.020Z,85.43
2022-11-27T23:53:08.570Z,85.64
2022-11-27T23:55:34.545Z,84.89
2022-11-27T23:57:58.078Z,84.60
